createdAt,value
2023-02-22T00:00:43.239Z,101164.41
2023-02-22T00:03:16.200Z,101163.34
2023-02-22T00:05:47.212Z,101161.56
2023-02-22T00:08:15.415Z,101172.56
2023-02-22T00:10:41.849Z,101162.28
2023-02-22T00:13:09.777Z,101152.81
2023-02-22T00:15:36.504Z,101154.88
2023-02-22T00:18:04.823Z,101140.53
2023-02-22T00:20:31.167Z,101141.69
2023-02-22T00:22:57.603Z,101138.44
2023-02-22T00:25:24.824Z,101131.59
2023-02-22T00:27:52.825Z,101136.19
2023-02-22T00:30:27.025Z,101139.13
2023-02-22T00:32:55.851Z,101138.44
2023-02-22T00:35:25.692Z,101146.69
2023-02-22T00:37:55.568Z,101146.09
2023-02-22T00:40:24.797Z,101149.00
2023-02-22T00:42:51.874Z,101139.59
2023-02-22T00:45:24.053Z,101146.88
2023-02-22T00:47:51.095Z,101140.06
2023-02-22T00:50:18.804Z,101133.09
2023-02-22T00:52:45.715Z,101139.53
2023-02-22T00:55:24.827Z,101136.19
2023-02-22T00:57:51.281Z,101128.56
2023-02-22T01:00:24.288Z,101133.06
2023-02-22T01:02:51.720Z,101127.84
2023-02-22T01:05:23.897Z,101125.38
2023-02-22T01:07:55.598Z,101131.88
2023-02-22T01:10:24.803Z,101120.88
2023-02-22T01:12:52.455Z,101124.84
2023-02-22T01:15:23.789Z,101108.03
2023-02-22T01:17:53.372Z,101122.31
2023-02-22T01:20:22.726Z,101116.16
2023-02-22T01:22:51.446Z,101112.38
2023-02-22T01:25:22.058Z,101111.44
2023-02-22T01:27:50.082Z,101109.53
2023-02-22T01:30:21.835Z,101110.16
2023-02-22T01:32:48.229Z,101111.53
2023-02-22T01:35:18.381Z,101112.09
2023-02-22T01:37:45.342Z,101097.78
2023-02-22T01:40:20.222Z,101096.72
2023-02-22T01:42:55.352Z,101092.88
2023-02-22T01:45:30.790Z,101098.78
2023-02-22T01:48:28.549Z,101096.78
2023-02-22T01:51:03.461Z,101087.75
2023-02-22T01:53:36.964Z,101086.63
2023-02-22T01:56:04.514Z,101089.28
2023-02-22T01:58:33.504Z,101082.16
2023-02-22T02:01:01.049Z,101084.72
2023-02-22T02:03:33.192Z,101084.81
2023-02-22T02:06:02.725Z,101089.22
2023-02-22T02:08:39.767Z,101086.38
2023-02-22T02:11:09.223Z,101089.72
2023-02-22T02:13:36.187Z,101084.38
2023-02-22T02:16:02.540Z,101079.91
2023-02-22T02:18:29.333Z,101069.28
2023-02-22T02:21:24.074Z,101065.47
2023-02-22T02:23:59.686Z,101056.66
2023-02-22T02:27:02.927Z,101060.16
2023-02-22T02:29:43.503Z,101052.06
2023-02-22T02:32:59.847Z,101054.19
2023-02-22T02:35:58.607Z,101038.41
2023-02-22T02:38:50.603Z,101037.75
2023-02-22T02:41:49.132Z,101044.56
2023-02-22T02:44:37.815Z,101039.16
2023-02-22T02:47:21.942Z,101034.09
2023-02-22T02:49:54.833Z,101031.31
2023-02-22T02:52:24.822Z,101034.03
2023-02-22T02:54:52.746Z,101031.19
2023-02-22T02:57:19.079Z,101030.25
2023-02-22T02:59:46.295Z,101031.09
2023-02-22T03:02:36.781Z,101024.13
2023-02-22T03:05:12.942Z,101018.97
2023-02-22T03:08:01.819Z,101019.88
2023-02-22T03:10:37.652Z,101026.78
2023-02-22T03:13:19.226Z,101012.84
2023-02-22T03:16:16.612Z,101007.59
2023-02-22T03:18:55.958Z,101004.75
2023-02-22T03:21:31.483Z,100992.47
2023-02-22T03:24:09.866Z,100985.44
2023-02-22T03:26:43.387Z,100989.81
2023-02-22T03:29:13.158Z,100983.66
2023-02-22T03:31:43.546Z,100992.78
2023-02-22T03:34:16.971Z,100983.72
2023-02-22T03:36:49.981Z,100980.84
2023-02-22T03:39:20.168Z,100978.97
2023-02-22T03:41:51.296Z,100991.34
2023-02-22T03:44:25.414Z,100982.44
2023-02-22T03:46:56.640Z,100977.06
2023-02-22T03:49:32.723Z,100976.25
2023-02-22T03:52:01.023Z,100984.03
2023-02-22T03:54:29.095Z,100975.03
2023-02-22T03:57:00.802Z,100977.56
2023-02-22T03:59:29.192Z,100969.38
2023-02-22T04:01:56.887Z,100969.53
2023-02-22T04:04:25.252Z,100980.16
2023-02-22T04:06:52.444Z,100982.28
2023-02-22T04:09:19.575Z,100979.50
2023-02-22T04:11:45.988Z,100975.03
2023-02-22T04:14:12.941Z,100981.06
2023-02-22T04:16:39.670Z,100986.47
2023-02-22T04:19:08.757Z,100983.72
2023-02-22T04:21:37.535Z,100980.72
2023-02-22T04:24:05.063Z,100986.31
2023-02-22T04:26:31.946Z,100991.34
2023-02-22T04:29:00.579Z,100984.44
2023-02-22T04:31:33.989Z,100988.59
2023-02-22T04:34:01.439Z,100988.59
2023-02-22T04:36:31.752Z,100980.63
2023-02-22T04:39:00.083Z,100976.97
2023-02-22T04:41:28.517Z,100981.28
2023-02-22T04:43:54.941Z,100983.13
2023-02-22T04:46:23.592Z,100976.06
2023-02-22T04:48:51.632Z,100979.56
2023-02-22T04:51:21.020Z,100975.09
2023-02-22T04:53:56.237Z,100973.88
2023-02-22T04:56:22.686Z,100969.31
2023-02-22T04:58:49.042Z,100971.28
2023-02-22T05:01:16.481Z,100969.44
2023-02-22T05:03:43.844Z,100962.34
2023-02-22T05:06:12.283Z,100969.66
2023-02-22T05:08:38.674Z,100963.63
2023-02-22T05:11:05.682Z,100963.56
2023-02-22T05:13:32.078Z,100958.38
2023-02-22T05:15:58.460Z,100950.72
2023-02-22T05:18:24.934Z,100948.13
2023-02-22T05:20:51.313Z,100948.28
2023-02-22T05:23:17.649Z,100944.88
2023-02-22T05:25:44.380Z,100940.34
2023-02-22T05:28:12.953Z,100938.34
2023-02-22T05:30:39.852Z,100936.78
2023-02-22T05:33:07.299Z,100936.84
2023-02-22T05:35:33.802Z,100940.44
2023-02-22T05:38:02.995Z,100935.25
2023-02-22T05:40:30.192Z,100937.56
2023-02-22T05:42:56.918Z,100937.47
2023-02-22T05:45:25.850Z,100938.41
2023-02-22T05:47:53.244Z,100935.97
2023-02-22T05:50:20.964Z,100934.09
2023-02-22T05:52:48.619Z,100930.66
2023-02-22T05:55:18.260Z,100930.72
2023-02-22T05:57:44.808Z,100922.94
2023-02-22T06:00:16.366Z,100928.25
2023-02-22T06:02:42.737Z,100924.69
2023-02-22T06:05:09.161Z,100928.19
2023-02-22T06:07:35.558Z,100924.75
2023-02-22T06:10:01.976Z,100924.75
2023-02-22T06:12:28.316Z,100923.84
2023-02-22T06:14:54.775Z,100925.59
2023-02-22T06:17:21.171Z,100922.03
2023-02-22T06:19:47.531Z,100921.09
2023-02-22T06:22:18.788Z,100922.09
2023-02-22T06:24:45.233Z,100922.94
2023-02-22T06:27:11.966Z,100922.94
2023-02-22T06:29:38.337Z,100921.25
2023-02-22T06:32:05.023Z,100913.22
2023-02-22T06:34:31.486Z,100921.09
2023-02-22T06:36:59.936Z,100922.31
2023-02-22T06:39:26.436Z,100916.69
2023-02-22T06:41:55.114Z,100926.09
2023-02-22T06:44:21.947Z,100926.00
2023-02-22T06:46:52.805Z,100924.97
2023-02-22T06:49:20.351Z,100929.34
2023-02-22T06:51:47.598Z,100928.34
2023-02-22T06:54:14.491Z,100924.81
2023-02-22T06:56:40.840Z,100919.59
2023-02-22T06:59:08.330Z,100923.34
2023-02-22T07:01:34.859Z,100918.72
2023-02-22T07:04:01.275Z,100914.19
2023-02-22T07:06:27.640Z,100916.78
2023-02-22T07:08:54.641Z,100915.13
2023-02-22T07:11:21.046Z,100918.06
2023-02-22T07:13:47.367Z,100917.53
2023-02-22T07:16:13.869Z,100915.25
2023-02-22T07:18:40.195Z,100909.41
2023-02-22T07:21:07.450Z,100915.59
2023-02-22T07:23:33.838Z,100908.41
2023-02-22T07:26:01.256Z,100910.28
2023-02-22T07:28:27.589Z,100911.84
2023-02-22T07:30:53.999Z,100913.25
2023-02-22T07:33:20.482Z,100908.72
2023-02-22T07:35:48.915Z,100913.91
2023-02-22T07:38:17.813Z,100917.00
2023-02-22T07:40:44.930Z,100920.50
2023-02-22T07:43:19.595Z,100914.94
2023-02-22T07:45:47.866Z,100916.09
2023-02-22T07:48:17.337Z,100914.56
2023-02-22T07:50:44.665Z,100914.56
2023-02-22T07:53:18.004Z,100914.94
2023-02-22T07:55:44.866Z,100906.31
2023-02-22T07:58:15.252Z,100904.75
2023-02-22T08:00:43.947Z,100897.53
2023-02-22T08:03:13.133Z,100901.09
2023-02-22T08:05:42.316Z,100900.03
2023-02-22T08:08:08.966Z,100895.44
2023-02-22T08:10:35.698Z,100894.63
2023-02-22T08:13:02.860Z,100881.03
2023-02-22T08:15:33.173Z,100890.69
2023-02-22T08:18:01.079Z,100893.94
2023-02-22T08:20:29.061Z,100892.28
2023-02-22T08:22:56.222Z,100889.53
2023-02-22T08:25:27.153Z,100883.97
2023-02-22T08:27:58.734Z,100880.81
2023-02-22T08:30:25.656Z,100885.13
2023-02-22T08:32:52.275Z,100883.38
2023-02-22T08:35:20.146Z,100881.59
2023-02-22T08:37:48.986Z,100891.28
2023-02-22T08:40:17.834Z,100884.03
2023-02-22T08:42:44.337Z,100881.09
2023-02-22T08:45:13.216Z,100877.16
2023-02-22T08:47:40.361Z,100877.00
2023-02-22T08:50:07.890Z,100879.22
2023-02-22T08:52:35.020Z,100874.19
2023-02-22T08:55:01.688Z,100878.31
2023-02-22T08:57:28.060Z,100873.25
2023-02-22T08:59:54.434Z,100865.28
2023-02-22T09:02:22.286Z,100862.28
2023-02-22T09:04:49.101Z,100866.44
2023-02-22T09:07:15.626Z,100857.22
2023-02-22T09:09:45.338Z,100855.84
2023-02-22T09:12:12.080Z,100862.16
2023-02-22T09:14:38.572Z,100863.22
2023-02-22T09:17:05.968Z,100861.66
2023-02-22T09:19:32.575Z,100858.34
2023-02-22T09:22:02.120Z,100855.84
2023-02-22T09:24:28.553Z,100851.69
2023-02-22T09:26:55.235Z,100851.50
2023-02-22T09:29:23.367Z,100846.41
2023-02-22T09:31:52.887Z,100845.44
2023-02-22T09:34:20.840Z,100845.16
2023-02-22T09:36:48.067Z,100850.75
2023-02-22T09:39:16.799Z,100850.00
2023-02-22T09:42:05.687Z,100846.91
2023-02-22T09:44:48.204Z,100846.47
2023-02-22T09:47:19.884Z,100844.59
2023-02-22T09:50:15.367Z,100840.19
2023-02-22T09:53:22.029Z,100837.13
2023-02-22T09:55:53.176Z,100836.53
2023-02-22T09:58:26.859Z,100834.84
2023-02-22T10:01:00.968Z,100830.22
2023-02-22T10:03:36.512Z,100835.09
2023-02-22T10:06:09.993Z,100838.75
2023-02-22T10:08:41.438Z,100838.03
2023-02-22T10:11:23.036Z,100834.47
2023-02-22T10:13:57.916Z,100826.94
2023-02-22T10:16:36.940Z,100836.56
2023-02-22T10:19:28.256Z,100831.97
2023-02-22T10:22:19.149Z,100823.06
2023-02-22T10:24:45.477Z,100823.13
2023-02-22T10:27:29.075Z,100820.19
2023-02-22T10:30:23.326Z,100825.50
2023-02-22T10:32:55.744Z,100825.19
2023-02-22T10:35:27.885Z,100825.84
2023-02-22T10:38:12.422Z,100819.22
2023-02-22T10:40:39.238Z,100811.75
2023-02-22T10:43:08.165Z,100814.66
2023-02-22T10:45:36.885Z,100813.09
2023-02-22T10:48:11.416Z,100811.47
2023-02-22T10:50:41.451Z,100809.03
2023-02-22T10:53:10.112Z,100807.69
2023-02-22T10:55:57.300Z,100802.41
2023-02-22T10:58:24.393Z,100796.09
2023-02-22T11:00:51.576Z,100796.75
2023-02-22T11:03:23.665Z,100786.75
2023-02-22T11:05:50.709Z,100790.38
2023-02-22T11:08:17.044Z,100786.88
2023-02-22T11:10:43.471Z,100785.97
2023-02-22T11:13:25.782Z,100783.94
2023-02-22T11:15:54.318Z,100781.53
2023-02-22T11:18:33.468Z,100777.25
2023-02-22T11:21:10.122Z,100770.97
2023-02-22T11:23:38.643Z,100772.78
2023-02-22T11:26:14.216Z,100767.94
2023-02-22T11:28:49.180Z,100760.38
2023-02-22T11:31:18.011Z,100763.03
2023-02-22T11:36:42.874Z,100752.47
2023-02-22T11:39:34.101Z,100749.44
2023-02-22T11:42:22.615Z,100753.84
2023-02-22T11:44:50.745Z,100744.66
2023-02-22T11:47:24.437Z,100740.16
2023-02-22T11:49:53.342Z,100743.81
2023-02-22T11:52:29.738Z,100734.47
2023-02-22T11:55:09.879Z,100736.16
2023-02-22T11:57:51.209Z,100733.94
2023-02-22T12:00:36.311Z,100739.56
2023-02-22T12:03:37.837Z,100726.88
2023-02-22T12:06:16.423Z,100731.53
2023-02-22T12:09:01.228Z,100715.63
2023-02-22T12:12:03.864Z,100711.59
2023-02-22T12:14:45.961Z,100714.75
2023-02-22T12:17:32.209Z,100710.97
2023-02-22T12:20:09.927Z,100719.19
2023-02-22T12:22:46.018Z,100710.03
2023-02-22T12:25:22.616Z,100708.00
2023-02-22T12:27:54.012Z,100704.59
2023-02-22T12:30:28.816Z,100696.94
2023-02-22T12:32:59.918Z,100685.84
2023-02-22T12:35:37.218Z,100689.00
2023-02-22T12:38:22.950Z,100691.91
2023-02-22T12:41:02.690Z,100682.81
2023-02-22T12:43:35.603Z,100681.13
2023-02-22T12:46:24.277Z,100675.31
2023-02-22T12:49:01.303Z,100679.69
2023-02-22T12:51:48.554Z,100678.28
2023-02-22T12:54:31.915Z,100685.66
2023-02-22T12:57:11.470Z,100681.53
2023-02-22T12:59:55.735Z,100683.81
2023-02-22T13:02:45.497Z,100675.72
2023-02-22T13:05:20.503Z,100675.69
2023-02-22T13:07:52.712Z,100679.78
2023-02-22T13:10:44.418Z,100681.63
2023-02-22T13:13:32.285Z,100681.41
2023-02-22T13:16:10.704Z,100685.69
2023-02-22T13:18:53.537Z,100679.97
2023-02-22T13:21:23.627Z,100678.97
2023-02-22T13:24:06.489Z,100674.16
2023-02-22T13:26:35.807Z,100674.88
2023-02-22T13:29:17.543Z,100678.41
2023-02-22T13:31:53.187Z,100679.25
2023-02-22T13:34:27.324Z,100676.44
2023-02-22T13:37:19.783Z,100675.72
2023-02-22T13:40:13.847Z,100670.88
2023-02-22T13:43:14.778Z,100674.47
2023-02-22T13:45:46.838Z,100672.19
2023-02-22T13:48:39.759Z,100677.16
2023-02-22T13:51:15.652Z,100674.88
2023-02-22T13:53:50.262Z,100678.56
2023-02-22T13:56:20.280Z,100678.28
2023-02-22T13:58:49.865Z,100673.47
2023-02-22T14:01:43.995Z,100670.59
2023-02-22T14:04:20.930Z,100664.94
2023-02-22T14:06:47.338Z,100664.94
2023-02-22T14:09:19.096Z,100657.41
2023-02-22T14:11:54.058Z,100664.66
2023-02-22T14:14:20.865Z,100665.19
2023-02-22T14:17:19.147Z,100669.19
2023-02-22T14:20:01.080Z,100674.72
2023-02-22T14:22:30.648Z,100672.56
2023-02-22T14:24:58.276Z,100672.81
2023-02-22T14:27:24.851Z,100670.81
2023-02-22T14:29:57.403Z,100674.50
2023-02-22T14:32:32.227Z,100665.03
2023-02-22T14:35:04.315Z,100668.03
2023-02-22T14:37:42.608Z,100672.13
2023-02-22T14:40:27.601Z,100670.31
2023-02-22T14:43:20.811Z,100666.75
2023-02-22T14:45:54.902Z,100673.28
2023-02-22T14:48:33.518Z,100671.88
2023-02-22T14:51:15.650Z,100676.53
2023-02-22T14:53:52.640Z,100670.25
2023-02-22T14:56:41.024Z,100669.72
2023-02-22T14:59:21.526Z,100670.00
2023-02-22T15:02:01.744Z,100673.16
2023-02-22T15:04:32.421Z,100676.25
2023-02-22T15:07:01.084Z,100663.16
2023-02-22T15:09:32.962Z,100671.59
2023-02-22T15:12:03.899Z,100677.56
2023-02-22T15:14:37.626Z,100672.59
2023-02-22T15:17:22.732Z,100675.31
2023-02-22T15:19:49.931Z,100674.78
2023-02-22T15:22:30.066Z,100672.25
2023-02-22T15:25:06.097Z,100669.53
2023-02-22T15:27:36.869Z,100666.78
2023-02-22T15:30:26.422Z,100679.41
2023-02-22T15:33:04.125Z,100680.09
2023-02-22T15:35:33.255Z,100678.44
2023-02-22T15:38:11.554Z,100678.75
2023-02-22T15:40:42.868Z,100681.56
2023-02-22T15:43:24.042Z,100688.69
2023-02-22T15:45:54.748Z,100691.28
2023-02-22T15:48:21.317Z,100684.28
2023-02-22T15:51:06.410Z,100685.13
2023-02-22T15:53:47.766Z,100687.34
2023-02-22T15:56:24.231Z,100690.06
2023-02-22T15:58:51.595Z,100686.13
2023-02-22T16:01:19.832Z,100685.94
2023-02-22T16:03:51.261Z,100679.53
2023-02-22T16:06:35.092Z,100678.16
2023-02-22T16:09:25.256Z,100684.41
2023-02-22T16:12:10.963Z,100687.09
2023-02-22T16:14:40.063Z,100686.13
2023-02-22T16:17:25.466Z,100682.22
2023-02-22T16:19:52.854Z,100682.25
2023-02-22T16:22:37.254Z,100689.00
2023-02-22T16:25:30.946Z,100696.56
2023-02-22T16:28:01.458Z,100693.66
2023-02-22T16:30:34.378Z,100692.44
2023-02-22T16:33:05.451Z,100698.66
2023-02-22T16:35:35.282Z,100693.09
2023-02-22T16:38:04.912Z,100697.72
2023-02-22T16:40:36.003Z,100692.94
2023-02-22T16:43:05.965Z,100702.00
2023-02-22T16:45:32.829Z,100706.03
2023-02-22T16:48:00.181Z,100706.53
2023-02-22T16:50:26.684Z,100705.66
2023-02-22T16:52:55.658Z,100711.41
2023-02-22T16:55:22.355Z,100708.34
2023-02-22T16:57:49.897Z,100707.28
2023-02-22T17:00:30.918Z,100702.38
2023-02-22T17:03:03.804Z,100703.13
2023-02-22T17:05:31.741Z,100705.13
2023-02-22T17:07:58.189Z,100701.94
2023-02-22T17:10:25.989Z,100700.97
2023-02-22T17:12:53.261Z,100702.78
2023-02-22T17:15:24.593Z,100714.66
2023-02-22T17:17:52.622Z,100710.13
2023-02-22T17:20:31.608Z,100718.53
2023-02-22T17:23:08.008Z,100712.81
2023-02-22T17:25:42.333Z,100714.16
2023-02-22T17:28:09.351Z,100716.69
2023-02-22T17:30:36.368Z,100717.44
2023-02-22T17:33:06.388Z,100720.84
2023-02-22T17:35:36.987Z,100726.22
2023-02-22T17:38:06.013Z,100724.13
2023-02-22T17:40:39.790Z,100731.22
2023-02-22T17:43:08.780Z,100734.75
2023-02-22T17:45:38.281Z,100736.69
2023-02-22T17:48:05.395Z,100740.97
2023-02-22T17:50:31.803Z,100747.06
2023-02-22T17:53:00.407Z,100752.31
2023-02-22T17:55:27.502Z,100749.31
2023-02-22T17:57:58.483Z,100746.00
2023-02-22T18:00:34.000Z,100755.38
2023-02-22T18:03:03.343Z,100749.50
2023-02-22T18:05:32.874Z,100748.31
2023-02-22T18:08:00.197Z,100750.25
2023-02-22T18:10:27.154Z,100751.44
2023-02-22T18:12:53.921Z,100757.41
2023-02-22T18:15:23.471Z,100744.31
2023-02-22T18:17:50.252Z,100752.63
2023-02-22T18:20:30.815Z,100749.78
2023-02-22T18:22:59.017Z,100758.44
2023-02-22T18:25:26.539Z,100753.06
2023-02-22T18:27:54.846Z,100771.81
2023-02-22T18:30:21.714Z,100768.38
2023-02-22T18:32:48.115Z,100769.66
2023-02-22T18:35:14.461Z,100766.38
2023-02-22T18:37:40.896Z,100774.19
2023-02-22T18:40:10.519Z,100766.78
2023-02-22T18:42:38.705Z,100774.31
2023-02-22T18:45:07.155Z,100763.63
2023-02-22T18:47:42.532Z,100779.69
2023-02-22T18:50:10.649Z,100769.31
2023-02-22T18:52:44.700Z,100763.66
2023-02-22T18:55:19.242Z,100771.63
2023-02-22T18:57:46.752Z,100777.09
2023-02-22T19:00:16.103Z,100773.03
2023-02-22T19:02:45.798Z,100760.81
2023-02-22T19:05:17.191Z,100768.34
2023-02-22T19:07:44.817Z,100779.69
2023-02-22T19:10:11.322Z,100776.41
2023-02-22T19:12:37.733Z,100772.00
2023-02-22T19:15:04.410Z,100778.97
2023-02-22T19:17:32.207Z,100771.47
2023-02-22T19:19:58.601Z,100778.00
2023-02-22T19:22:26.114Z,100779.09
2023-02-22T19:24:56.296Z,100778.75
2023-02-22T19:27:22.814Z,100770.94
2023-02-22T19:29:49.870Z,100772.94
2023-02-22T19:32:17.268Z,100783.75
2023-02-22T19:34:44.002Z,100785.88
2023-02-22T19:37:12.460Z,100786.56
2023-02-22T19:39:39.010Z,100784.41
2023-02-22T19:42:09.046Z,100790.72
2023-02-22T19:44:36.863Z,100789.41
2023-02-22T19:47:08.775Z,100795.13
2023-02-22T19:49:37.062Z,100797.13
2023-02-22T19:52:06.568Z,100793.91
2023-02-22T19:54:33.530Z,100796.28
2023-02-22T19:57:00.389Z,100807.19
2023-02-22T19:59:27.339Z,100810.06
2023-02-22T20:01:54.674Z,100811.78
2023-02-22T20:04:21.566Z,100811.97
2023-02-22T20:06:57.373Z,100804.59
2023-02-22T20:09:29.702Z,100811.41
2023-02-22T20:11:56.485Z,100811.06
2023-02-22T20:14:25.934Z,100820.06
2023-02-22T20:16:53.744Z,100815.47
2023-02-22T20:19:22.398Z,100809.13
2023-02-22T20:21:49.345Z,100814.78
2023-02-22T20:24:18.110Z,100814.91
2023-02-22T20:26:46.321Z,100816.50
2023-02-22T20:29:13.757Z,100821.50
2023-02-22T20:31:41.842Z,100827.63
2023-02-22T20:34:09.683Z,100822.88
2023-02-22T20:36:38.316Z,100823.06
2023-02-22T20:39:13.030Z,100814.75
2023-02-22T20:41:42.406Z,100809.50
2023-02-22T20:44:12.001Z,100826.44
2023-02-22T20:46:38.343Z,100821.38
2023-02-22T20:49:11.021Z,100820.19
2023-02-22T20:51:39.473Z,100824.81
2023-02-22T20:54:06.543Z,100821.72
2023-02-22T20:56:33.001Z,100821.16
2023-02-22T20:59:02.438Z,100815.81
2023-02-22T21:01:29.631Z,100829.84
2023-02-22T21:04:00.973Z,100828.44
2023-02-22T21:06:28.625Z,100818.50
2023-02-22T21:08:57.910Z,100827.38
2023-02-22T21:11:27.158Z,100822.88
2023-02-22T21:13:53.843Z,100825.66
2023-02-22T21:16:29.649Z,100829.09
2023-02-22T21:18:58.939Z,100832.72
2023-02-22T21:21:27.382Z,100825.97
2023-02-22T21:23:56.203Z,100830.25
2023-02-22T21:26:27.417Z,100827.41
2023-02-22T21:28:54.970Z,100830.63
2023-02-22T21:31:23.829Z,100829.91
2023-02-22T21:33:52.710Z,100831.06
2023-02-22T21:36:20.471Z,100828.59
2023-02-22T21:38:53.060Z,100832.13
2023-02-22T21:41:21.763Z,100834.13
2023-02-22T21:43:50.144Z,100841.06
2023-02-22T21:46:17.103Z,100834.78
2023-02-22T21:48:48.807Z,100829.44
2023-02-22T21:51:20.046Z,100828.88
2023-02-22T21:53:52.242Z,100833.16
2023-02-22T21:56:24.180Z,100830.88
2023-02-22T21:58:58.989Z,100827.16
2023-02-22T22:01:38.674Z,100820.00
2023-02-22T22:04:05.134Z,100821.34
2023-02-22T22:06:33.960Z,100817.16
2023-02-22T22:09:00.345Z,100825.06
2023-02-22T22:11:27.414Z,100822.03
2023-02-22T22:13:57.323Z,100827.38
2023-02-22T22:16:26.766Z,100827.38
2023-02-22T22:18:54.718Z,100816.91
2023-02-22T22:21:23.502Z,100825.09
2023-02-22T22:23:54.164Z,100817.97
2023-02-22T22:26:20.911Z,100827.47
2023-02-22T22:28:49.626Z,100820.63
2023-02-22T22:31:17.318Z,100828.81
2023-02-22T22:33:44.776Z,100824.25
2023-02-22T22:36:13.880Z,100829.38
2023-02-22T22:38:40.338Z,100828.66
2023-02-22T22:41:08.213Z,100824.75
2023-02-22T22:43:36.467Z,100828.94
2023-02-22T22:46:05.275Z,100828.81
2023-02-22T22:48:35.880Z,100819.97
2023-02-22T22:51:06.389Z,100824.53
2023-02-22T22:53:34.082Z,100823.00
2023-02-22T22:56:05.979Z,100820.53
2023-02-22T22:58:33.806Z,100816.16
2023-02-22T23:01:05.779Z,100829.69
2023-02-22T23:03:38.316Z,100824.06
2023-02-22T23:06:05.362Z,100828.56
2023-02-22T23:08:42.852Z,100832.28
2023-02-22T23:11:12.673Z,100829.03
2023-02-22T23:13:39.505Z,100834.38
2023-02-22T23:16:12.620Z,100831.22
2023-02-22T23:18:43.047Z,100832.19
2023-02-22T23:21:10.575Z,100831.16
2023-02-22T23:23:37.868Z,100832.28
2023-02-22T23:26:11.308Z,100833.63
2023-02-22T23:28:39.362Z,100826.75
2023-02-22T23:31:10.121Z,100825.81
2023-02-22T23:33:38.170Z,100830.09
2023-02-22T23:36:05.779Z,100830.94
2023-02-22T23:38:34.665Z,100841.72
2023-02-22T23:41:02.704Z,100838.09
2023-02-22T23:43:32.435Z,100838.19
2023-02-22T23:46:10.607Z,100840.22
2023-02-22T23:48:46.553Z,100841.81
2023-02-22T23:51:15.904Z,100847.94
2023-02-22T23:53:45.955Z,100844.59
2023-02-22T23:56:23.808Z,100844.38
2023-02-22T23:58:51.784Z,100845.63
